sensor_id;sensor_type;location;lat;lon;timestamp;P1;durP1;ratioP1;P2;durP2;ratioP2
3503;SDS011;1766;53.490;10.174;2022-09-21T00:00:47;3.90;;;2.03;;
3503;SDS011;1766;53.490;10.174;2022-09-21T00:02:49;5.53;;;2.80;;
3503;SDS011;1766;53.490;10.174;2022-09-21T00:04:51;6.37;;;2.87;;
3503;SDS011;1766;53.490;10.174;2022-09-21T00:06:53;10.23;;;2.90;;
3503;SDS011;1766;53.490;10.174;2022-09-21T00:08:55;9.63;;;3.63;;
3503;SDS011;1766;53.490;10.174;2022-09-21T00:10:57;4.80;;;3.23;;
3503;SDS011;1766;53.490;10.174;2022-09-21T00:13:02;8.03;;;4.30;;
3503;SDS011;1766;53.490;10.174;2022-09-21T00:15:08;6.67;;;3.47;;
3503;SDS011;1766;53.490;10.174;2022-09-21T00:17:10;4.73;;;3.30;;
3503;SDS011;1766;53.490;10.174;2022-09-21T00:19:12;3.10;;;2.47;;
3503;SDS011;1766;53.490;10.174;2022-09-21T00:21:16;8.00;;;2.60;;
3503;SDS011;1766;53.490;10.174;2022-09-21T00:23:18;3.27;;;2.27;;
3503;SDS011;1766;53.490;10.174;2022-09-21T00:25:20;3.40;;;1.80;;
3503;SDS011;1766;53.490;10.174;2022-09-21T00:27:22;3.60;;;1.73;;
3503;SDS011;1766;53.490;10.174;2022-09-21T00:29:30;4.80;;;1.80;;
3503;SDS011;1766;53.490;10.174;2022-09-21T00:31:32;2.30;;;1.70;;
3503;SDS011;1766;53.490;10.174;2022-09-21T00:33:34;2.43;;;2.23;;
3503;SDS011;1766;53.490;10.174;2022-09-21T00:35:36;1.87;;;1.77;;
3503;SDS011;1766;53.490;10.174;2022-09-21T00:37:38;1.77;;;1.67;;
3503;SDS011;1766;53.490;10.174;2022-09-21T00:39:40;2.90;;;1.80;;
3503;SDS011;1766;53.490;10.174;2022-09-21T00:41:42;2.93;;;1.83;;
3503;SDS011;1766;53.490;10.174;2022-09-21T00:43:45;2.23;;;1.80;;
3503;SDS011;1766;53.490;10.174;2022-09-21T00:45:51;3.40;;;1.73;;
3503;SDS011;1766;53.490;10.174;2022-09-21T00:47:58;5.03;;;1.93;;
3503;SDS011;1766;53.490;10.174;2022-09-21T00:50:01;3.17;;;1.70;;
3503;SDS011;1766;53.490;10.174;2022-09-21T00:52:07;3.70;;;2.23;;
3503;SDS011;1766;53.490;10.174;2022-09-21T00:54:15;2.97;;;2.10;;
3503;SDS011;1766;53.490;10.174;2022-09-21T00:56:22;5.53;;;2.23;;
3503;SDS011;1766;53.490;10.174;2022-09-21T00:58:25;4.53;;;2.30;;
3503;SDS011;1766;53.490;10.174;2022-09-21T01:00:30;4.30;;;2.50;;
3503;SDS011;1766;53.490;10.174;2022-09-21T01:02:33;7.43;;;2.23;;
3503;SDS011;1766;53.490;10.174;2022-09-21T01:04:36;7.50;;;2.60;;
3503;SDS011;1766;53.490;10.174;2022-09-21T01:06:39;7.23;;;2.50;;
3503;SDS011;1766;53.490;10.174;2022-09-21T01:08:41;5.53;;;2.57;;
3503;SDS011;1766;53.490;10.174;2022-09-21T01:10:48;4.57;;;2.50;;
3503;SDS011;1766;53.490;10.174;2022-09-21T01:13:21;5.43;;;3.20;;
3503;SDS011;1766;53.490;10.174;2022-09-21T01:15:38;4.40;;;2.57;;
3503;SDS011;1766;53.490;10.174;2022-09-21T01:17:53;2.80;;;2.20;;
3503;SDS011;1766;53.490;10.174;2022-09-21T01:22:44;5.83;;;2.43;;
3503;SDS011;1766;53.490;10.174;2022-09-21T01:25:00;5.80;;;2.77;;
3503;SDS011;1766;53.490;10.174;2022-09-21T01:27:18;8.10;;;3.30;;
3503;SDS011;1766;53.490;10.174;2022-09-21T01:29:48;7.30;;;3.00;;
3503;SDS011;1766;53.490;10.174;2022-09-21T01:31:58;8.67;;;2.93;;
3503;SDS011;1766;53.490;10.174;2022-09-21T01:34:06;4.60;;;2.90;;
3503;SDS011;1766;53.490;10.174;2022-09-21T01:36:15;3.27;;;2.97;;
3503;SDS011;1766;53.490;10.174;2022-09-21T01:38:24;7.07;;;2.80;;
3503;SDS011;1766;53.490;10.174;2022-09-21T01:40:31;3.40;;;2.37;;
3503;SDS011;1766;53.490;10.174;2022-09-21T01:42:37;3.73;;;2.03;;
3503;SDS011;1766;53.490;10.174;2022-09-21T01:44:40;3.90;;;2.30;;
3503;SDS011;1766;53.490;10.174;2022-09-21T01:46:47;3.93;;;2.30;;
3503;SDS011;1766;53.490;10.174;2022-09-21T01:48:51;4.90;;;2.50;;
3503;SDS011;1766;53.490;10.174;2022-09-21T01:50:58;9.77;;;3.00;;
3503;SDS011;1766;53.490;10.174;2022-09-21T01:53:04;3.83;;;2.50;;
3503;SDS011;1766;53.490;10.174;2022-09-21T01:55:12;5.63;;;2.63;;
3503;SDS011;1766;53.490;10.174;2022-09-21T01:57:21;4.80;;;2.80;;
3503;SDS011;1766;53.490;10.174;2022-09-21T01:59:31;6.17;;;2.87;;
3503;SDS011;1766;53.490;10.174;2022-09-21T02:01:42;6.60;;;2.53;;
3503;SDS011;1766;53.490;10.174;2022-09-21T02:03:51;4.43;;;3.23;;
3503;SDS011;1766;53.490;10.174;2022-09-21T02:05:57;4.33;;;2.50;;
3503;SDS011;1766;53.490;10.174;2022-09-21T02:08:01;3.17;;;2.60;;
3503;SDS011;1766;53.490;10.174;2022-09-21T02:10:06;5.60;;;2.93;;
3503;SDS011;1766;53.490;10.174;2022-09-21T02:12:13;5.03;;;2.50;;
3503;SDS011;1766;53.490;10.174;2022-09-21T02:14:16;3.80;;;2.60;;
3503;SDS011;1766;53.490;10.174;2022-09-21T02:16:28;4.83;;;2.87;;
3503;SDS011;1766;53.490;10.174;2022-09-21T02:18:42;5.17;;;2.37;;
3503;SDS011;1766;53.490;10.174;2022-09-21T02:20:56;5.40;;;2.47;;
3503;SDS011;1766;53.490;10.174;2022-09-21T02:23:03;3.60;;;2.60;;
3503;SDS011;1766;53.490;10.174;2022-09-21T02:25:13;5.57;;;2.50;;
3503;SDS011;1766;53.490;10.174;2022-09-21T02:27:22;2.70;;;2.40;;
3503;SDS011;1766;53.490;10.174;2022-09-21T02:29:36;5.37;;;3.10;;
3503;SDS011;1766;53.490;10.174;2022-09-21T02:31:48;8.33;;;4.00;;
3503;SDS011;1766;53.490;10.174;2022-09-21T02:33:59;7.57;;;3.63;;
3503;SDS011;1766;53.490;10.174;2022-09-21T02:36:10;7.00;;;3.13;;
3503;SDS011;1766;53.490;10.174;2022-09-21T02:38:33;5.17;;;3.30;;
3503;SDS011;1766;53.490;10.174;2022-09-21T02:40:40;6.80;;;3.40;;
3503;SDS011;1766;53.490;10.174;2022-09-21T02:42:50;8.43;;;3.37;;
3503;SDS011;1766;53.490;10.174;2022-09-21T02:44:57;6.63;;;3.77;;
3503;SDS011;1766;53.490;10.174;2022-09-21T02:47:08;6.77;;;3.50;;
3503;SDS011;1766;53.490;10.174;2022-09-21T02:49:18;6.80;;;3.47;;
3503;SDS011;1766;53.490;10.174;2022-09-21T02:51:24;5.03;;;3.33;;
3503;SDS011;1766;53.490;10.174;2022-09-21T02:53:35;7.97;;;3.13;;
3503;SDS011;1766;53.490;10.174;2022-09-21T02:55:40;6.53;;;2.80;;
3503;SDS011;1766;53.490;10.174;2022-09-21T02:57:44;4.53;;;3.20;;
3503;SDS011;1766;53.490;10.174;2022-09-21T02:59:48;4.43;;;2.53;;
3503;SDS011;1766;53.490;10.174;2022-09-21T03:01:51;6.27;;;2.77;;
3503;SDS011;1766;53.490;10.174;2022-09-21T03:03:53;5.00;;;2.50;;
3503;SDS011;1766;53.490;10.174;2022-09-21T03:05:56;3.97;;;2.30;;
3503;SDS011;1766;53.490;10.174;2022-09-21T03:07:58;2.77;;;2.40;;
3503;SDS011;1766;53.490;10.174;2022-09-21T03:10:00;8.63;;;2.50;;
3503;SDS011;1766;53.490;10.174;2022-09-21T03:12:02;3.23;;;2.70;;
3503;SDS011;1766;53.490;10.174;2022-09-21T03:14:04;2.30;;;1.87;;
3503;SDS011;1766;53.490;10.174;2022-09-21T03:16:07;4.53;;;1.50;;
3503;SDS011;1766;53.490;10.174;2022-09-21T03:18:09;7.53;;;2.20;;
3503;SDS011;1766;53.490;10.174;2022-09-21T03:20:12;3.13;;;2.07;;
3503;SDS011;1766;53.490;10.174;2022-09-21T03:22:15;2.20;;;1.63;;
3503;SDS011;1766;53.490;10.174;2022-09-21T03:24:17;2.30;;;2.10;;
3503;SDS011;1766;53.490;10.174;2022-09-21T03:26:39;2.77;;;1.70;;
3503;SDS011;1766;53.490;10.174;2022-09-21T03:28:42;2.97;;;1.83;;
3503;SDS011;1766;53.490;10.174;2022-09-21T03:30:44;2.57;;;1.77;;
3503;SDS011;1766;53.490;10.174;2022-09-21T03:32:47;2.07;;;1.87;;
3503;SDS011;1766;53.490;10.174;2022-09-21T03:34:50;3.23;;;2.00;;
3503;SDS011;1766;53.490;10.174;2022-09-21T03:36:51;2.43;;;1.93;;
3503;SDS011;1766;53.490;10.174;2022-09-21T03:38:55;2.33;;;1.83;;
3503;SDS011;1766;53.490;10.174;2022-09-21T03:40:57;2.73;;;1.90;;
3503;SDS011;1766;53.490;10.174;2022-09-21T03:42:58;2.03;;;1.80;;
3503;SDS011;1766;53.490;10.174;2022-09-21T03:45:00;1.77;;;1.67;;
3503;SDS011;1766;53.490;10.174;2022-09-21T03:47:02;2.77;;;1.90;;
3503;SDS011;1766;53.490;10.174;2022-09-21T03:49:05;5.87;;;2.60;;
3503;SDS011;1766;53.490;10.174;2022-09-21T03:51:07;7.67;;;3.00;;
3503;SDS011;1766;53.490;10.174;2022-09-21T03:53:10;5.63;;;3.00;;
3503;SDS011;1766;53.490;10.174;2022-09-21T03:55:13;3.73;;;2.83;;
3503;SDS011;1766;53.490;10.174;2022-09-21T03:57:15;5.37;;;2.83;;
3503;SDS011;1766;53.490;10.174;2022-09-21T03:59:16;4.90;;;3.03;;
3503;SDS011;1766;53.490;10.174;2022-09-21T04:01:19;9.83;;;3.60;;
3503;SDS011;1766;53.490;10.174;2022-09-21T04:03:21;6.23;;;3.23;;
3503;SDS011;1766;53.490;10.174;2022-09-21T04:05:23;9.40;;;3.73;;
3503;SDS011;1766;53.490;10.174;2022-09-21T04:07:25;10.57;;;4.23;;
3503;SDS011;1766;53.490;10.174;2022-09-21T04:09:26;6.57;;;3.80;;
3503;SDS011;1766;53.490;10.174;2022-09-21T04:11:30;9.20;;;3.80;;
3503;SDS011;1766;53.490;10.174;2022-09-21T04:13:32;5.97;;;3.37;;
3503;SDS011;1766;53.490;10.174;2022-09-21T04:15:34;7.27;;;3.93;;
3503;SDS011;1766;53.490;10.174;2022-09-21T04:17:36;7.97;;;3.87;;
3503;SDS011;1766;53.490;10.174;2022-09-21T04:19:37;5.00;;;3.27;;
3503;SDS011;1766;53.490;10.174;2022-09-21T04:21:39;12.40;;;3.97;;
3503;SDS011;1766;53.490;10.174;2022-09-21T04:23:41;9.77;;;4.50;;
3503;SDS011;1766;53.490;10.174;2022-09-21T04:25:43;11.43;;;4.40;;
3503;SDS011;1766;53.490;10.174;2022-09-21T04:27:46;9.27;;;3.90;;
3503;SDS011;1766;53.490;10.174;2022-09-21T04:29:48;7.10;;;3.07;;
3503;SDS011;1766;53.490;10.174;2022-09-21T04:31:50;5.07;;;2.63;;
3503;SDS011;1766;53.490;10.174;2022-09-21T04:33:53;6.13;;;2.70;;
3503;SDS011;1766;53.490;10.174;2022-09-21T04:35:57;3.60;;;2.73;;
3503;SDS011;1766;53.490;10.174;2022-09-21T04:37:59;5.70;;;2.43;;
3503;SDS011;1766;53.490;10.174;2022-09-21T04:40:01;3.80;;;2.33;;
3503;SDS011;1766;53.490;10.174;2022-09-21T04:42:03;2.23;;;2.03;;
3503;SDS011;1766;53.490;10.174;2022-09-21T04:44:07;2.87;;;2.10;;
3503;SDS011;1766;53.490;10.174;2022-09-21T04:46:10;5.73;;;2.87;;
3503;SDS011;1766;53.490;10.174;2022-09-21T04:48:13;7.03;;;2.97;;
3503;SDS011;1766;53.490;10.174;2022-09-21T04:50:15;7.10;;;2.67;;
3503;SDS011;1766;53.490;10.174;2022-09-21T04:52:18;5.90;;;2.73;;
3503;SDS011;1766;53.490;10.174;2022-09-21T04:54:20;15.93;;;3.10;;
3503;SDS011;1766;53.490;10.174;2022-09-21T04:56:22;5.47;;;2.60;;
3503;SDS011;1766;53.490;10.174;2022-09-21T04:58:23;7.13;;;3.70;;
3503;SDS011;1766;53.490;10.174;2022-09-21T05:00:27;13.60;;;5.67;;
3503;SDS011;1766;53.490;10.174;2022-09-21T05:02:28;10.07;;;4.80;;
3503;SDS011;1766;53.490;10.174;2022-09-21T05:04:30;9.60;;;4.07;;
3503;SDS011;1766;53.490;10.174;2022-09-21T05:06:32;14.47;;;5.90;;
3503;SDS011;1766;53.490;10.174;2022-09-21T05:08:34;10.70;;;4.70;;
3503;SDS011;1766;53.490;10.174;2022-09-21T05:10:50;14.07;;;4.77;;
3503;SDS011;1766;53.490;10.174;2022-09-21T05:12:53;15.70;;;5.03;;
3503;SDS011;1766;53.490;10.174;2022-09-21T05:14:54;16.53;;;5.13;;
3503;SDS011;1766;53.490;10.174;2022-09-21T05:16:57;9.67;;;5.03;;
3503;SDS011;1766;53.490;10.174;2022-09-21T05:18:59;19.03;;;5.23;;
3503;SDS011;1766;53.490;10.174;2022-09-21T05:21:02;13.03;;;5.00;;
3503;SDS011;1766;53.490;10.174;2022-09-21T05:23:05;9.53;;;4.37;;
3503;SDS011;1766;53.490;10.174;2022-09-21T05:25:07;11.00;;;5.43;;
3503;SDS011;1766;53.490;10.174;2022-09-21T05:27:09;14.83;;;5.43;;
3503;SDS011;1766;53.490;10.174;2022-09-21T05:29:12;16.33;;;6.30;;
3503;SDS011;1766;53.490;10.174;2022-09-21T05:31:20;15.53;;;5.60;;
3503;SDS011;1766;53.490;10.174;2022-09-21T05:33:38;17.37;;;6.80;;
3503;SDS011;1766;53.490;10.174;2022-09-21T05:35:43;16.20;;;5.63;;
3503;SDS011;1766;53.490;10.174;2022-09-21T05:38:00;15.03;;;5.00;;
3503;SDS011;1766;53.490;10.174;2022-09-21T05:40:07;12.27;;;5.03;;
3503;SDS011;1766;53.490;10.174;2022-09-21T05:42:11;13.30;;;4.93;;
3503;SDS011;1766;53.490;10.174;2022-09-21T05:44:14;10.17;;;3.83;;
3503;SDS011;1766;53.490;10.174;2022-09-21T05:46:17;6.00;;;3.50;;
3503;SDS011;1766;53.490;10.174;2022-09-21T05:48:35;8.60;;;3.90;;
3503;SDS011;1766;53.490;10.174;2022-09-21T05:50:46;8.77;;;4.03;;
3503;SDS011;1766;53.490;10.174;2022-09-21T05:52:57;8.60;;;4.00;;
3503;SDS011;1766;53.490;10.174;2022-09-21T05:55:17;7.43;;;3.50;;
3503;SDS011;1766;53.490;10.174;2022-09-21T05:57:28;6.70;;;3.27;;
3503;SDS011;1766;53.490;10.174;2022-09-21T05:59:44;7.67;;;3.10;;
3503;SDS011;1766;53.490;10.174;2022-09-21T06:01:58;4.53;;;2.77;;
3503;SDS011;1766;53.490;10.174;2022-09-21T06:04:09;5.63;;;2.73;;
3503;SDS011;1766;53.490;10.174;2022-09-21T06:06:12;6.43;;;2.77;;
3503;SDS011;1766;53.490;10.174;2022-09-21T06:08:14;4.10;;;2.27;;
3503;SDS011;1766;53.490;10.174;2022-09-21T06:10:16;4.13;;;2.33;;
3503;SDS011;1766;53.490;10.174;2022-09-21T06:12:17;3.57;;;2.87;;
3503;SDS011;1766;53.490;10.174;2022-09-21T06:14:19;7.53;;;3.00;;
3503;SDS011;1766;53.490;10.174;2022-09-21T06:16:24;6.53;;;3.10;;
3503;SDS011;1766;53.490;10.174;2022-09-21T06:18:26;5.20;;;2.70;;
3503;SDS011;1766;53.490;10.174;2022-09-21T06:20:29;4.60;;;2.83;;
3503;SDS011;1766;53.490;10.174;2022-09-21T06:22:31;3.70;;;3.00;;
3503;SDS011;1766;53.490;10.174;2022-09-21T06:24:33;7.60;;;3.10;;
3503;SDS011;1766;53.490;10.174;2022-09-21T06:26:35;7.20;;;3.60;;
3503;SDS011;1766;53.490;10.174;2022-09-21T06:28:37;7.97;;;3.20;;
3503;SDS011;1766;53.490;10.174;2022-09-21T06:48:19;9.47;;;5.93;;
3503;SDS011;1766;53.490;10.174;2022-09-21T06:50:22;9.83;;;4.63;;
3503;SDS011;1766;53.490;10.174;2022-09-21T06:52:24;7.33;;;4.47;;
3503;SDS011;1766;53.490;10.174;2022-09-21T06:54:25;9.27;;;4.03;;
3503;SDS011;1766;53.490;10.174;2022-09-21T06:56:27;7.07;;;4.13;;
3503;SDS011;1766;53.490;10.174;2022-09-21T06:58:29;14.00;;;4.30;;
3503;SDS011;1766;53.490;10.174;2022-09-21T07:00:33;7.57;;;4.47;;
3503;SDS011;1766;53.490;10.174;2022-09-21T07:02:35;13.47;;;5.53;;
3503;SDS011;1766;53.490;10.174;2022-09-21T07:04:39;17.43;;;7.50;;
3503;SDS011;1766;53.490;10.174;2022-09-21T07:06:40;14.90;;;6.73;;
3503;SDS011;1766;53.490;10.174;2022-09-21T07:08:42;13.17;;;6.80;;
3503;SDS011;1766;53.490;10.174;2022-09-21T07:10:45;13.43;;;6.73;;
3503;SDS011;1766;53.490;10.174;2022-09-21T07:12:46;38.37;;;20.80;;
3503;SDS011;1766;53.490;10.174;2022-09-21T07:14:50;30.07;;;15.83;;
3503;SDS011;1766;53.490;10.174;2022-09-21T07:16:52;100.57;;;55.33;;
3503;SDS011;1766;53.490;10.174;2022-09-21T07:18:54;20.43;;;11.17;;
3503;SDS011;1766;53.490;10.174;2022-09-21T07:20:57;16.40;;;10.60;;
3503;SDS011;1766;53.490;10.174;2022-09-21T07:23:08;18.27;;;9.63;;
3503;SDS011;1766;53.490;10.174;2022-09-21T07:25:13;12.90;;;9.60;;
3503;SDS011;1766;53.490;10.174;2022-09-21T07:27:15;16.50;;;10.27;;
3503;SDS011;1766;53.490;10.174;2022-09-21T07:29:17;16.47;;;9.17;;
3503;SDS011;1766;53.490;10.174;2022-09-21T07:31:18;16.23;;;9.17;;
3503;SDS011;1766;53.490;10.174;2022-09-21T07:33:20;14.57;;;9.00;;
3503;SDS011;1766;53.490;10.174;2022-09-21T07:35:24;20.40;;;9.30;;
3503;SDS011;1766;53.490;10.174;2022-09-21T07:37:27;17.00;;;9.73;;
3503;SDS011;1766;53.490;10.174;2022-09-21T07:39:31;14.07;;;8.57;;
3503;SDS011;1766;53.490;10.174;2022-09-21T07:41:34;25.87;;;14.63;;
3503;SDS011;1766;53.490;10.174;2022-09-21T07:43:36;38.33;;;23.17;;
3503;SDS011;1766;53.490;10.174;2022-09-21T07:45:39;15.00;;;9.57;;
3503;SDS011;1766;53.490;10.174;2022-09-21T07:47:41;27.37;;;13.97;;
3503;SDS011;1766;53.490;10.174;2022-09-21T07:49:43;25.30;;;13.03;;
3503;SDS011;1766;53.490;10.174;2022-09-21T07:51:46;26.57;;;16.50;;
3503;SDS011;1766;53.490;10.174;2022-09-21T07:53:52;236.47;;;144.93;;
3503;SDS011;1766;53.490;10.174;2022-09-21T07:55:59;205.87;;;122.03;;
3503;SDS011;1766;53.490;10.174;2022-09-21T07:58:02;45.07;;;28.33;;
3503;SDS011;1766;53.490;10.174;2022-09-21T08:00:18;24.90;;;13.63;;
3503;SDS011;1766;53.490;10.174;2022-09-21T08:02:20;21.97;;;10.43;;
3503;SDS011;1766;53.490;10.174;2022-09-21T08:04:22;17.30;;;9.90;;
3503;SDS011;1766;53.490;10.174;2022-09-21T08:06:25;15.20;;;9.57;;
3503;SDS011;1766;53.490;10.174;2022-09-21T08:08:29;18.13;;;10.10;;
3503;SDS011;1766;53.490;10.174;2022-09-21T08:10:32;15.13;;;9.13;;
3503;SDS011;1766;53.490;10.174;2022-09-21T08:12:35;18.40;;;8.90;;
3503;SDS011;1766;53.490;10.174;2022-09-21T08:14:36;16.17;;;9.53;;
3503;SDS011;1766;53.490;10.174;2022-09-21T08:16:38;15.63;;;9.00;;
3503;SDS011;1766;53.490;10.174;2022-09-21T08:18:40;15.67;;;9.90;;
3503;SDS011;1766;53.490;10.174;2022-09-21T08:20:42;16.87;;;9.70;;
3503;SDS011;1766;53.490;10.174;2022-09-21T08:22:44;13.77;;;9.17;;
3503;SDS011;1766;53.490;10.174;2022-09-21T08:24:46;17.40;;;8.93;;
3503;SDS011;1766;53.490;10.174;2022-09-21T08:26:49;17.50;;;9.13;;
3503;SDS011;1766;53.490;10.174;2022-09-21T08:28:52;14.37;;;8.87;;
3503;SDS011;1766;53.490;10.174;2022-09-21T08:30:58;54.03;;;30.67;;
3503;SDS011;1766;53.490;10.174;2022-09-21T08:33:00;41.23;;;27.53;;
3503;SDS011;1766;53.490;10.174;2022-09-21T08:35:02;17.17;;;10.67;;
3503;SDS011;1766;53.490;10.174;2022-09-21T08:37:05;16.73;;;9.70;;
3503;SDS011;1766;53.490;10.174;2022-09-21T08:39:07;18.10;;;10.03;;
3503;SDS011;1766;53.490;10.174;2022-09-21T08:41:12;13.33;;;9.50;;
3503;SDS011;1766;53.490;10.174;2022-09-21T08:43:25;16.40;;;9.90;;
3503;SDS011;1766;53.490;10.174;2022-09-21T08:45:33;16.57;;;9.37;;
3503;SDS011;1766;53.490;10.174;2022-09-21T08:47:40;12.70;;;7.93;;
3503;SDS011;1766;53.490;10.174;2022-09-21T08:49:46;12.60;;;8.00;;
3503;SDS011;1766;53.490;10.174;2022-09-21T08:51:56;11.03;;;7.13;;
3503;SDS011;1766;53.490;10.174;2022-09-21T08:54:02;16.43;;;7.50;;
3503;SDS011;1766;53.490;10.174;2022-09-21T08:56:13;12.40;;;7.00;;
3503;SDS011;1766;53.490;10.174;2022-09-21T08:58:19;12.57;;;6.43;;
3503;SDS011;1766;53.490;10.174;2022-09-21T09:00:24;11.27;;;6.20;;
3503;SDS011;1766;53.490;10.174;2022-09-21T09:02:30;12.47;;;5.93;;
3503;SDS011;1766;53.490;10.174;2022-09-21T09:04:43;11.03;;;6.20;;
3503;SDS011;1766;53.490;10.174;2022-09-21T09:06:57;8.03;;;4.80;;
3503;SDS011;1766;53.490;10.174;2022-09-21T09:09:16;10.70;;;5.87;;
3503;SDS011;1766;53.490;10.174;2022-09-21T09:11:34;6.13;;;4.17;;
3503;SDS011;1766;53.490;10.174;2022-09-21T09:13:53;7.10;;;4.67;;
3503;SDS011;1766;53.490;10.174;2022-09-21T09:16:13;6.27;;;4.20;;
3503;SDS011;1766;53.490;10.174;2022-09-21T09:18:22;5.33;;;3.70;;
3503;SDS011;1766;53.490;10.174;2022-09-21T09:20:30;4.93;;;3.13;;
3503;SDS011;1766;53.490;10.174;2022-09-21T09:22:38;24.17;;;16.73;;
3503;SDS011;1766;53.490;10.174;2022-09-21T09:24:46;26.23;;;16.50;;
3503;SDS011;1766;53.490;10.174;2022-09-21T09:26:50;5.20;;;3.87;;
3503;SDS011;1766;53.490;10.174;2022-09-21T09:28:57;5.37;;;3.13;;
3503;SDS011;1766;53.490;10.174;2022-09-21T09:31:04;3.07;;;2.43;;
3503;SDS011;1766;53.490;10.174;2022-09-21T09:33:14;3.93;;;2.50;;
3503;SDS011;1766;53.490;10.174;2022-09-21T09:35:25;4.33;;;2.17;;
3503;SDS011;1766;53.490;10.174;2022-09-21T09:37:29;4.47;;;2.00;;
3503;SDS011;1766;53.490;10.174;2022-09-21T09:39:36;4.80;;;2.27;;
3503;SDS011;1766;53.490;10.174;2022-09-21T09:41:44;4.13;;;1.67;;
3503;SDS011;1766;53.490;10.174;2022-09-21T09:44:05;2.60;;;1.77;;
3503;SDS011;1766;53.490;10.174;2022-09-21T09:46:23;2.33;;;1.17;;
3503;SDS011;1766;53.490;10.174;2022-09-21T09:48:34;1.90;;;1.33;;
3503;SDS011;1766;53.490;10.174;2022-09-21T09:50:49;2.73;;;1.70;;
3503;SDS011;1766;53.490;10.174;2022-09-21T09:52:50;3.97;;;2.57;;
3503;SDS011;1766;53.490;10.174;2022-09-21T09:54:59;4.50;;;1.73;;
3503;SDS011;1766;53.490;10.174;2022-09-21T09:59:23;1.50;;;0.37;;
3503;SDS011;1766;53.490;10.174;2022-09-21T10:01:37;1.13;;;0.60;;
3503;SDS011;1766;53.490;10.174;2022-09-21T10:03:41;1.53;;;0.80;;
3503;SDS011;1766;53.490;10.174;2022-09-21T10:05:43;2.77;;;1.47;;
3503;SDS011;1766;53.490;10.174;2022-09-21T10:07:46;3.17;;;1.47;;
3503;SDS011;1766;53.490;10.174;2022-09-21T10:14:09;6.40;;;3.80;;
3503;SDS011;1766;53.490;10.174;2022-09-21T10:16:20;7.27;;;4.90;;
3503;SDS011;1766;53.490;10.174;2022-09-21T10:18:23;4.47;;;3.17;;
3503;SDS011;1766;53.490;10.174;2022-09-21T10:22:40;3.17;;;2.60;;
3503;SDS011;1766;53.490;10.174;2022-09-21T10:24:45;4.73;;;2.37;;
3503;SDS011;1766;53.490;10.174;2022-09-21T10:26:53;2.57;;;1.80;;
3503;SDS011;1766;53.490;10.174;2022-09-21T10:28:57;44.27;;;29.73;;
3503;SDS011;1766;53.490;10.174;2022-09-21T10:31:11;8.63;;;5.77;;
3503;SDS011;1766;53.490;10.174;2022-09-21T10:33:20;6.23;;;1.90;;
3503;SDS011;1766;53.490;10.174;2022-09-21T10:35:22;4.00;;;1.50;;
3503;SDS011;1766;53.490;10.174;2022-09-21T10:37:25;2.17;;;1.30;;
3503;SDS011;1766;53.490;10.174;2022-09-21T10:39:29;3.57;;;1.00;;
3503;SDS011;1766;53.490;10.174;2022-09-21T10:41:32;2.40;;;1.70;;
3503;SDS011;1766;53.490;10.174;2022-09-21T10:43:34;3.07;;;1.30;;
3503;SDS011;1766;53.490;10.174;2022-09-21T10:45:41;2.70;;;1.57;;
3503;SDS011;1766;53.490;10.174;2022-09-21T10:47:58;2.30;;;1.20;;
3503;SDS011;1766;53.490;10.174;2022-09-21T10:50:19;2.33;;;1.30;;
3503;SDS011;1766;53.490;10.174;2022-09-21T10:52:30;3.50;;;1.53;;
3503;SDS011;1766;53.490;10.174;2022-09-21T10:54:35;4.50;;;1.83;;
3503;SDS011;1766;53.490;10.174;2022-09-21T10:56:37;4.87;;;1.70;;
3503;SDS011;1766;53.490;10.174;2022-09-21T11:01:12;3.67;;;1.43;;
3503;SDS011;1766;53.490;10.174;2022-09-21T11:03:27;2.37;;;1.30;;
3503;SDS011;1766;53.490;10.174;2022-09-21T11:05:43;3.47;;;1.60;;
3503;SDS011;1766;53.490;10.174;2022-09-21T11:07:47;3.50;;;1.47;;
3503;SDS011;1766;53.490;10.174;2022-09-21T11:09:57;5.10;;;1.90;;
3503;SDS011;1766;53.490;10.174;2022-09-21T11:12:07;15.37;;;9.07;;
3503;SDS011;1766;53.490;10.174;2022-09-21T11:14:34;5.53;;;1.90;;
3503;SDS011;1766;53.490;10.174;2022-09-21T11:16:46;5.57;;;2.17;;
3503;SDS011;1766;53.490;10.174;2022-09-21T11:18:57;3.57;;;2.13;;
3503;SDS011;1766;53.490;10.174;2022-09-21T11:21:12;6.77;;;3.13;;
3503;SDS011;1766;53.490;10.174;2022-09-21T11:23:23;3.70;;;1.47;;
3503;SDS011;1766;53.490;10.174;2022-09-21T11:25:40;2.50;;;1.43;;
3503;SDS011;1766;53.490;10.174;2022-09-21T11:27:48;3.93;;;1.43;;
3503;SDS011;1766;53.490;10.174;2022-09-21T11:29:59;1.70;;;1.07;;
3503;SDS011;1766;53.490;10.174;2022-09-21T11:32:10;2.58;;;1.50;;
3503;SDS011;1766;53.490;10.174;2022-09-21T11:34:32;3.80;;;1.02;;
3503;SDS011;1766;53.490;10.174;2022-09-21T11:36:55;4.78;;;1.58;;
3503;SDS011;1766;53.490;10.174;2022-09-21T11:39:11;3.63;;;1.48;;
3503;SDS011;1766;53.490;10.174;2022-09-21T11:41:35;8.25;;;4.88;;
3503;SDS011;1766;53.490;10.174;2022-09-21T11:43:55;3.97;;;1.50;;
3503;SDS011;1766;53.490;10.174;2022-09-21T11:46:12;4.53;;;1.60;;
3503;SDS011;1766;53.490;10.174;2022-09-21T11:48:27;1.08;;;1.00;;
3503;SDS011;1766;53.490;10.174;2022-09-21T11:50:51;3.30;;;1.30;;
3503;SDS011;1766;53.490;10.174;2022-09-21T11:53:13;20.88;;;16.83;;
3503;SDS011;1766;53.490;10.174;2022-09-21T11:55:35;4.53;;;1.30;;
3503;SDS011;1766;53.490;10.174;2022-09-21T11:57:53;6.85;;;1.23;;
3503;SDS011;1766;53.490;10.174;2022-09-21T12:00:06;2.45;;;1.42;;
3503;SDS011;1766;53.490;10.174;2022-09-21T12:02:19;4.13;;;1.33;;
3503;SDS011;1766;53.490;10.174;2022-09-21T12:04:38;2.22;;;1.65;;
3503;SDS011;1766;53.490;10.174;2022-09-21T12:06:52;3.03;;;1.23;;
3503;SDS011;1766;53.490;10.174;2022-09-21T12:09:14;1.73;;;1.13;;
3503;SDS011;1766;53.490;10.174;2022-09-21T12:11:33;4.40;;;1.55;;
3503;SDS011;1766;53.490;10.174;2022-09-21T12:13:41;3.30;;;1.42;;
3503;SDS011;1766;53.490;10.174;2022-09-21T12:15:53;1.85;;;1.38;;
3503;SDS011;1766;53.490;10.174;2022-09-21T12:18:05;4.80;;;1.70;;
3503;SDS011;1766;53.490;10.174;2022-09-21T12:20:15;2.05;;;0.98;;
3503;SDS011;1766;53.490;10.174;2022-09-21T12:22:28;1.30;;;0.80;;
3503;SDS011;1766;53.490;10.174;2022-09-21T12:24:34;2.17;;;1.17;;
3503;SDS011;1766;53.490;10.174;2022-09-21T12:26:45;2.75;;;1.00;;
3503;SDS011;1766;53.490;10.174;2022-09-21T12:28:52;1.60;;;0.68;;
3503;SDS011;1766;53.490;10.174;2022-09-21T12:31:01;0.95;;;0.88;;
3503;SDS011;1766;53.490;10.174;2022-09-21T12:33:11;2.40;;;0.75;;
3503;SDS011;1766;53.490;10.174;2022-09-21T12:35:23;1.67;;;0.80;;
3503;SDS011;1766;53.490;10.174;2022-09-21T12:37:37;1.02;;;0.70;;
3503;SDS011;1766;53.490;10.174;2022-09-21T12:39:47;2.45;;;1.45;;
3503;SDS011;1766;53.490;10.174;2022-09-21T12:41:58;3.30;;;1.00;;
3503;SDS011;1766;53.490;10.174;2022-09-21T12:44:08;1.80;;;1.00;;
3503;SDS011;1766;53.490;10.174;2022-09-21T12:46:17;2.50;;;0.88;;
3503;SDS011;1766;53.490;10.174;2022-09-21T12:48:27;1.75;;;0.90;;
3503;SDS011;1766;53.490;10.174;2022-09-21T12:50:34;1.98;;;1.10;;
3503;SDS011;1766;53.490;10.174;2022-09-21T12:52:44;2.42;;;0.90;;
3503;SDS011;1766;53.490;10.174;2022-09-21T12:54:46;1.85;;;0.95;;
3503;SDS011;1766;53.490;10.174;2022-09-21T12:56:58;3.38;;;1.02;;
3503;SDS011;1766;53.490;10.174;2022-09-21T12:59:16;1.23;;;0.70;;
3503;SDS011;1766;53.490;10.174;2022-09-21T13:01:29;1.80;;;0.90;;
3503;SDS011;1766;53.490;10.174;2022-09-21T13:03:37;1.98;;;1.60;;
3503;SDS011;1766;53.490;10.174;2022-09-21T13:05:48;2.15;;;1.25;;
3503;SDS011;1766;53.490;10.174;2022-09-21T13:08:18;2.97;;;0.85;;
3503;SDS011;1766;53.490;10.174;2022-09-21T13:10:36;1.20;;;0.60;;
3503;SDS011;1766;53.490;10.174;2022-09-21T13:12:43;1.63;;;0.85;;
3503;SDS011;1766;53.490;10.174;2022-09-21T13:14:49;4.75;;;0.80;;
3503;SDS011;1766;53.490;10.174;2022-09-21T13:16:53;0.90;;;0.90;;
3503;SDS011;1766;53.490;10.174;2022-09-21T13:19:00;1.13;;;1.00;;
3503;SDS011;1766;53.490;10.174;2022-09-21T13:23:27;1.08;;;0.80;;
3503;SDS011;1766;53.490;10.174;2022-09-21T13:25:41;1.85;;;0.70;;
3503;SDS011;1766;53.490;10.174;2022-09-21T13:30:27;1.30;;;1.02;;